sensor_id;sensor_type;location;lat;lon;timestamp;temperature;humidity
22065;DHT22;11197;53.110;8.468;2023-04-24T00:00:11;12.80;99.90
22065;DHT22;11197;53.110;8.468;2023-04-24T00:02:41;12.80;99.90
22065;DHT22;11197;53.110;8.468;2023-04-24T00:05:10;12.80;99.90
22065;DHT22;11197;53.110;8.468;2023-04-24T00:07:36;12.80;99.90
22065;DHT22;11197;53.110;8.468;2023-04-24T00:10:02;12.70;99.90
22065;DHT22;11197;53.110;8.468;2023-04-24T00:12:28;12.70;99.90
22065;DHT22;11197;53.110;8.468;2023-04-24T00:14:53;12.70;99.90
22065;DHT22;11197;53.110;8.468;2023-04-24T00:17:19;12.70;99.90
22065;DHT22;11197;53.110;8.468;2023-04-24T00:19:47;12.70;99.90
22065;DHT22;11197;53.110;8.468;2023-04-24T00:22:13;12.60;99.90
22065;DHT22;11197;53.110;8.468;2023-04-24T00:24:45;12.60;99.90
22065;DHT22;11197;53.110;8.468;2023-04-24T00:27:10;12.60;99.90
22065;DHT22;11197;53.110;8.468;2023-04-24T00:29:36;12.60;99.90
22065;DHT22;11197;53.110;8.468;2023-04-24T00:32:02;12.60;99.90
22065;DHT22;11197;53.110;8.468;2023-04-24T00:34:28;12.50;99.90
22065;DHT22;11197;53.110;8.468;2023-04-24T00:36:53;12.40;99.90
22065;DHT22;11197;53.110;8.468;2023-04-24T00:39:20;12.40;99.90
22065;DHT22;11197;53.110;8.468;2023-04-24T00:41:47;12.40;99.90
22065;DHT22;11197;53.110;8.468;2023-04-24T00:44:14;12.30;99.90
22065;DHT22;11197;53.110;8.468;2023-04-24T00:46:40;12.20;99.90
22065;DHT22;11197;53.110;8.468;2023-04-24T00:49:06;12.10;99.90
22065;DHT22;11197;53.110;8.468;2023-04-24T00:51:32;12.10;99.90
22065;DHT22;11197;53.110;8.468;2023-04-24T00:53:59;12.00;99.90
22065;DHT22;11197;53.110;8.468;2023-04-24T00:56:26;12.10;99.90
22065;DHT22;11197;53.110;8.468;2023-04-24T00:58:52;12.00;99.90
22065;DHT22;11197;53.110;8.468;2023-04-24T01:01:20;12.00;99.90
22065;DHT22;11197;53.110;8.468;2023-04-24T01:03:46;11.90;99.90
22065;DHT22;11197;53.110;8.468;2023-04-24T01:06:13;11.90;99.90
22065;DHT22;11197;53.110;8.468;2023-04-24T01:08:40;11.90;99.90
22065;DHT22;11197;53.110;8.468;2023-04-24T01:11:07;11.90;99.90
22065;DHT22;11197;53.110;8.468;2023-04-24T01:13:33;11.90;99.90
22065;DHT22;11197;53.110;8.468;2023-04-24T01:15:59;11.90;99.90
22065;DHT22;11197;53.110;8.468;2023-04-24T01:18:26;11.90;99.90
22065;DHT22;11197;53.110;8.468;2023-04-24T01:20:56;11.90;99.90
22065;DHT22;11197;53.110;8.468;2023-04-24T01:23:23;11.90;99.90
22065;DHT22;11197;53.110;8.468;2023-04-24T01:25:51;11.90;99.90
22065;DHT22;11197;53.110;8.468;2023-04-24T01:28:18;11.90;99.90
22065;DHT22;11197;53.110;8.468;2023-04-24T01:30:44;11.90;99.90
22065;DHT22;11197;53.110;8.468;2023-04-24T01:33:10;11.90;99.90
22065;DHT22;11197;53.110;8.468;2023-04-24T01:35:37;11.90;99.90
22065;DHT22;11197;53.110;8.468;2023-04-24T01:38:03;11.90;99.90
22065;DHT22;11197;53.110;8.468;2023-04-24T01:40:30;11.90;99.90
22065;DHT22;11197;53.110;8.468;2023-04-24T01:42:58;11.90;99.90
22065;DHT22;11197;53.110;8.468;2023-04-24T01:45:24;11.90;99.90
22065;DHT22;11197;53.110;8.468;2023-04-24T01:47:50;11.90;99.90
22065;DHT22;11197;53.110;8.468;2023-04-24T01:50:16;11.90;99.90
22065;DHT22;11197;53.110;8.468;2023-04-24T01:52:43;12.00;99.90
22065;DHT22;11197;53.110;8.468;2023-04-24T01:55:09;11.90;99.90
22065;DHT22;11197;53.110;8.468;2023-04-24T01:57:35;11.90;99.90
22065;DHT22;11197;53.110;8.468;2023-04-24T02:00:02;11.90;99.90
22065;DHT22;11197;53.110;8.468;2023-04-24T02:02:42;11.90;99.90
22065;DHT22;11197;53.110;8.468;2023-04-24T02:05:08;11.90;99.90
22065;DHT22;11197;53.110;8.468;2023-04-24T02:07:37;11.90;99.90
22065;DHT22;11197;53.110;8.468;2023-04-24T02:10:03;11.90;99.90
22065;DHT22;11197;53.110;8.468;2023-04-24T02:12:31;11.80;99.90
22065;DHT22;11197;53.110;8.468;2023-04-24T02:14:56;11.80;99.90
22065;DHT22;11197;53.110;8.468;2023-04-24T02:17:22;11.80;99.90
22065;DHT22;11197;53.110;8.468;2023-04-24T02:19:48;11.80;99.90
22065;DHT22;11197;53.110;8.468;2023-04-24T02:22:16;11.80;99.90
22065;DHT22;11197;53.110;8.468;2023-04-24T02:24:42;11.80;99.90
22065;DHT22;11197;53.110;8.468;2023-04-24T02:27:07;11.80;99.90
22065;DHT22;11197;53.110;8.468;2023-04-24T02:29:36;11.80;99.90
22065;DHT22;11197;53.110;8.468;2023-04-24T02:32:02;11.80;99.90
22065;DHT22;11197;53.110;8.468;2023-04-24T02:34:31;11.70;99.90
22065;DHT22;11197;53.110;8.468;2023-04-24T02:36:58;11.70;99.90
22065;DHT22;11197;53.110;8.468;2023-04-24T02:39:24;11.70;99.90
22065;DHT22;11197;53.110;8.468;2023-04-24T02:41:51;11.70;99.90
22065;DHT22;11197;53.110;8.468;2023-04-24T02:44:17;11.60;99.90
22065;DHT22;11197;53.110;8.468;2023-04-24T02:46:43;11.70;99.90
22065;DHT22;11197;53.110;8.468;2023-04-24T02:49:09;11.60;99.90
22065;DHT22;11197;53.110;8.468;2023-04-24T02:51:35;11.60;99.90
22065;DHT22;11197;53.110;8.468;2023-04-24T02:54:03;11.60;99.90
22065;DHT22;11197;53.110;8.468;2023-04-24T02:56:29;11.60;99.90
22065;DHT22;11197;53.110;8.468;2023-04-24T02:58:57;11.60;99.90
22065;DHT22;11197;53.110;8.468;2023-04-24T03:01:23;11.60;99.90
22065;DHT22;11197;53.110;8.468;2023-04-24T03:03:49;11.60;99.90
22065;DHT22;11197;53.110;8.468;2023-04-24T03:06:15;11.60;99.90
22065;DHT22;11197;53.110;8.468;2023-04-24T03:08:41;11.60;99.90
22065;DHT22;11197;53.110;8.468;2023-04-24T03:11:06;11.60;99.90
22065;DHT22;11197;53.110;8.468;2023-04-24T03:13:32;11.60;99.90
22065;DHT22;11197;53.110;8.468;2023-04-24T03:15:58;11.50;99.90
22065;DHT22;11197;53.110;8.468;2023-04-24T03:18:27;11.50;99.90
22065;DHT22;11197;53.110;8.468;2023-04-24T03:20:53;11.50;99.90
22065;DHT22;11197;53.110;8.468;2023-04-24T03:23:19;11.50;99.90
22065;DHT22;11197;53.110;8.468;2023-04-24T03:25:45;11.50;99.90
22065;DHT22;11197;53.110;8.468;2023-04-24T03:28:12;11.50;99.90
22065;DHT22;11197;53.110;8.468;2023-04-24T03:30:42;11.40;99.90
22065;DHT22;11197;53.110;8.468;2023-04-24T03:33:09;11.40;99.90
22065;DHT22;11197;53.110;8.468;2023-04-24T03:35:40;11.50;99.90
22065;DHT22;11197;53.110;8.468;2023-04-24T03:38:09;11.60;99.90
22065;DHT22;11197;53.110;8.468;2023-04-24T03:40:59;11.60;99.90
22065;DHT22;11197;53.110;8.468;2023-04-24T03:43:47;11.50;99.90
22065;DHT22;11197;53.110;8.468;2023-04-24T03:46:15;11.50;99.90
22065;DHT22;11197;53.110;8.468;2023-04-24T03:48:46;11.40;99.90
22065;DHT22;11197;53.110;8.468;2023-04-24T03:51:14;11.40;99.90
22065;DHT22;11197;53.110;8.468;2023-04-24T03:53:44;11.40;99.90
22065;DHT22;11197;53.110;8.468;2023-04-24T03:56:12;11.40;99.90
22065;DHT22;11197;53.110;8.468;2023-04-24T03:58:39;11.40;99.90
22065;DHT22;11197;53.110;8.468;2023-04-24T04:01:09;11.40;99.90
22065;DHT22;11197;53.110;8.468;2023-04-24T04:03:39;11.40;99.90
22065;DHT22;11197;53.110;8.468;2023-04-24T04:06:05;11.40;99.90
22065;DHT22;11197;53.110;8.468;2023-04-24T04:08:31;11.40;99.90
22065;DHT22;11197;53.110;8.468;2023-04-24T04:10:57;11.40;99.90
22065;DHT22;11197;53.110;8.468;2023-04-24T04:13:23;11.40;99.90
22065;DHT22;11197;53.110;8.468;2023-04-24T04:15:49;11.40;99.90
22065;DHT22;11197;53.110;8.468;2023-04-24T04:18:16;11.40;99.90
22065;DHT22;11197;53.110;8.468;2023-04-24T04:20:42;11.30;99.90
22065;DHT22;11197;53.110;8.468;2023-04-24T04:23:09;11.30;99.90
22065;DHT22;11197;53.110;8.468;2023-04-24T04:25:58;11.30;99.90
22065;DHT22;11197;53.110;8.468;2023-04-24T04:28:32;11.40;99.90
22065;DHT22;11197;53.110;8.468;2023-04-24T04:30:58;11.40;99.90
22065;DHT22;11197;53.110;8.468;2023-04-24T04:33:25;11.40;99.90
22065;DHT22;11197;53.110;8.468;2023-04-24T04:35:52;11.40;99.90
22065;DHT22;11197;53.110;8.468;2023-04-24T04:38:18;11.40;99.90
22065;DHT22;11197;53.110;8.468;2023-04-24T04:40:54;11.40;99.90
22065;DHT22;11197;53.110;8.468;2023-04-24T04:43:24;11.40;99.90
22065;DHT22;11197;53.110;8.468;2023-04-24T04:45:53;11.40;99.90
22065;DHT22;11197;53.110;8.468;2023-04-24T04:48:46;11.40;99.90
22065;DHT22;11197;53.110;8.468;2023-04-24T04:51:12;11.30;99.90
22065;DHT22;11197;53.110;8.468;2023-04-24T04:53:39;11.30;99.90
22065;DHT22;11197;53.110;8.468;2023-04-24T04:56:05;11.30;99.90
22065;DHT22;11197;53.110;8.468;2023-04-24T04:58:44;11.40;99.90
22065;DHT22;11197;53.110;8.468;2023-04-24T05:01:13;11.40;99.90
22065;DHT22;11197;53.110;8.468;2023-04-24T05:03:41;11.40;99.90
22065;DHT22;11197;53.110;8.468;2023-04-24T05:06:10;11.40;99.90
22065;DHT22;11197;53.110;8.468;2023-04-24T05:08:38;11.40;99.90
22065;DHT22;11197;53.110;8.468;2023-04-24T05:11:10;11.40;99.90
22065;DHT22;11197;53.110;8.468;2023-04-24T05:13:38;11.40;99.90
22065;DHT22;11197;53.110;8.468;2023-04-24T05:16:07;11.40;99.90
22065;DHT22;11197;53.110;8.468;2023-04-24T05:18:33;11.40;99.90
22065;DHT22;11197;53.110;8.468;2023-04-24T05:21:00;11.40;99.90
22065;DHT22;11197;53.110;8.468;2023-04-24T05:23:27;11.30;99.90
22065;DHT22;11197;53.110;8.468;2023-04-24T05:25:55;11.30;99.90
22065;DHT22;11197;53.110;8.468;2023-04-24T05:28:21;11.30;99.90
22065;DHT22;11197;53.110;8.468;2023-04-24T05:30:57;11.30;99.90
22065;DHT22;11197;53.110;8.468;2023-04-24T05:33:25;11.30;99.90
22065;DHT22;11197;53.110;8.468;2023-04-24T05:35:51;11.40;99.90
22065;DHT22;11197;53.110;8.468;2023-04-24T05:38:17;11.30;99.90
22065;DHT22;11197;53.110;8.468;2023-04-24T05:40:45;11.40;99.90
22065;DHT22;11197;53.110;8.468;2023-04-24T05:43:12;11.40;99.90
22065;DHT22;11197;53.110;8.468;2023-04-24T05:45:39;11.40;99.90
22065;DHT22;11197;53.110;8.468;2023-04-24T05:48:05;11.40;99.90
22065;DHT22;11197;53.110;8.468;2023-04-24T05:50:32;11.40;99.90
22065;DHT22;11197;53.110;8.468;2023-04-24T05:53:01;11.40;99.90
22065;DHT22;11197;53.110;8.468;2023-04-24T05:55:34;11.40;99.90
22065;DHT22;11197;53.110;8.468;2023-04-24T05:58:01;11.40;99.90
22065;DHT22;11197;53.110;8.468;2023-04-24T06:00:27;11.50;99.90
22065;DHT22;11197;53.110;8.468;2023-04-24T06:03:01;11.50;99.90
22065;DHT22;11197;53.110;8.468;2023-04-24T06:05:29;11.50;99.90
22065;DHT22;11197;53.110;8.468;2023-04-24T06:07:55;11.50;99.90
22065;DHT22;11197;53.110;8.468;2023-04-24T06:10:24;11.50;99.90
22065;DHT22;11197;53.110;8.468;2023-04-24T06:12:51;11.50;99.90
22065;DHT22;11197;53.110;8.468;2023-04-24T06:15:19;11.50;99.90
22065;DHT22;11197;53.110;8.468;2023-04-24T06:17:58;11.50;99.90
22065;DHT22;11197;53.110;8.468;2023-04-24T06:20:25;11.50;99.90
22065;DHT22;11197;53.110;8.468;2023-04-24T06:22:51;11.50;99.90
22065;DHT22;11197;53.110;8.468;2023-04-24T06:25:18;11.50;99.90
22065;DHT22;11197;53.110;8.468;2023-04-24T06:27:45;11.50;99.90
22065;DHT22;11197;53.110;8.468;2023-04-24T06:30:12;11.50;99.90
22065;DHT22;11197;53.110;8.468;2023-04-24T06:32:39;11.50;99.90
22065;DHT22;11197;53.110;8.468;2023-04-24T06:35:07;11.50;99.90
22065;DHT22;11197;53.110;8.468;2023-04-24T06:37:35;11.50;99.90
22065;DHT22;11197;53.110;8.468;2023-04-24T06:40:02;11.50;99.90
22065;DHT22;11197;53.110;8.468;2023-04-24T06:42:32;11.50;99.90
22065;DHT22;11197;53.110;8.468;2023-04-24T06:44:57;11.50;99.90
22065;DHT22;11197;53.110;8.468;2023-04-24T06:47:23;11.60;99.90
22065;DHT22;11197;53.110;8.468;2023-04-24T06:49:49;11.60;99.90
22065;DHT22;11197;53.110;8.468;2023-04-24T06:52:16;11.60;99.90
22065;DHT22;11197;53.110;8.468;2023-04-24T06:54:42;11.60;99.90
22065;DHT22;11197;53.110;8.468;2023-04-24T06:57:08;11.60;99.90
22065;DHT22;11197;53.110;8.468;2023-04-24T06:59:34;11.60;99.90
22065;DHT22;11197;53.110;8.468;2023-04-24T07:02:00;11.60;99.90
22065;DHT22;11197;53.110;8.468;2023-04-24T07:04:26;11.60;99.90
22065;DHT22;11197;53.110;8.468;2023-04-24T07:06:52;11.60;99.90
22065;DHT22;11197;53.110;8.468;2023-04-24T07:09:22;11.60;99.90
22065;DHT22;11197;53.110;8.468;2023-04-24T07:11:49;11.60;99.90
22065;DHT22;11197;53.110;8.468;2023-04-24T07:14:15;11.60;99.90
22065;DHT22;11197;53.110;8.468;2023-04-24T07:16:42;11.60;99.90
22065;DHT22;11197;53.110;8.468;2023-04-24T07:19:08;11.60;99.90
22065;DHT22;11197;53.110;8.468;2023-04-24T07:21:34;11.60;99.90
22065;DHT22;11197;53.110;8.468;2023-04-24T07:23:59;11.70;99.90
22065;DHT22;11197;53.110;8.468;2023-04-24T07:26:28;11.70;99.90
22065;DHT22;11197;53.110;8.468;2023-04-24T07:28:54;11.70;99.90
22065;DHT22;11197;53.110;8.468;2023-04-24T07:31:20;11.80;99.90
22065;DHT22;11197;53.110;8.468;2023-04-24T07:33:47;11.80;99.90
22065;DHT22;11197;53.110;8.468;2023-04-24T07:36:13;12.00;99.90
22065;DHT22;11197;53.110;8.468;2023-04-24T07:38:42;12.10;99.90
22065;DHT22;11197;53.110;8.468;2023-04-24T07:41:08;12.10;99.90
22065;DHT22;11197;53.110;8.468;2023-04-24T07:43:35;12.10;99.90
22065;DHT22;11197;53.110;8.468;2023-04-24T07:46:01;12.20;99.90
22065;DHT22;11197;53.110;8.468;2023-04-24T07:48:27;12.20;99.90
22065;DHT22;11197;53.110;8.468;2023-04-24T07:50:53;12.20;99.90
22065;DHT22;11197;53.110;8.468;2023-04-24T07:53:19;12.10;99.90
22065;DHT22;11197;53.110;8.468;2023-04-24T07:55:45;12.10;99.90
22065;DHT22;11197;53.110;8.468;2023-04-24T07:58:11;12.10;99.90
22065;DHT22;11197;53.110;8.468;2023-04-24T08:00:37;12.10;99.90
22065;DHT22;11197;53.110;8.468;2023-04-24T08:03:03;12.00;99.90
22065;DHT22;11197;53.110;8.468;2023-04-24T08:05:29;12.10;99.90
22065;DHT22;11197;53.110;8.468;2023-04-24T08:07:55;12.00;99.90
22065;DHT22;11197;53.110;8.468;2023-04-24T08:10:25;12.10;99.90
22065;DHT22;11197;53.110;8.468;2023-04-24T08:12:51;12.10;99.90
22065;DHT22;11197;53.110;8.468;2023-04-24T08:15:17;12.10;99.90
22065;DHT22;11197;53.110;8.468;2023-04-24T08:17:44;12.10;99.90
22065;DHT22;11197;53.110;8.468;2023-04-24T08:20:11;12.10;99.90
22065;DHT22;11197;53.110;8.468;2023-04-24T08:22:41;12.10;99.90
22065;DHT22;11197;53.110;8.468;2023-04-24T08:25:07;12.10;99.90
22065;DHT22;11197;53.110;8.468;2023-04-24T08:27:33;12.10;99.90
22065;DHT22;11197;53.110;8.468;2023-04-24T08:30:00;12.10;99.90
22065;DHT22;11197;53.110;8.468;2023-04-24T08:32:26;12.10;99.90
22065;DHT22;11197;53.110;8.468;2023-04-24T08:34:59;12.10;99.90
22065;DHT22;11197;53.110;8.468;2023-04-24T08:37:26;12.10;99.90
22065;DHT22;11197;53.110;8.468;2023-04-24T08:39:53;12.10;99.90
22065;DHT22;11197;53.110;8.468;2023-04-24T08:42:20;12.10;99.90
22065;DHT22;11197;53.110;8.468;2023-04-24T08:44:46;12.10;99.90
22065;DHT22;11197;53.110;8.468;2023-04-24T08:47:15;12.10;99.90
22065;DHT22;11197;53.110;8.468;2023-04-24T08:49:41;12.10;99.90
22065;DHT22;11197;53.110;8.468;2023-04-24T08:52:08;12.20;99.90
22065;DHT22;11197;53.110;8.468;2023-04-24T08:54:35;12.10;99.90
22065;DHT22;11197;53.110;8.468;2023-04-24T08:57:02;12.10;99.90
22065;DHT22;11197;53.110;8.468;2023-04-24T08:59:30;12.10;99.90
22065;DHT22;11197;53.110;8.468;2023-04-24T09:01:56;12.10;99.90
22065;DHT22;11197;53.110;8.468;2023-04-24T09:04:23;12.10;99.90
22065;DHT22;11197;53.110;8.468;2023-04-24T09:06:57;12.10;99.90
22065;DHT22;11197;53.110;8.468;2023-04-24T09:09:24;12.00;99.90
22065;DHT22;11197;53.110;8.468;2023-04-24T09:11:52;12.00;99.90
22065;DHT22;11197;53.110;8.468;2023-04-24T09:14:21;12.00;99.90
22065;DHT22;11197;53.110;8.468;2023-04-24T09:16:49;12.00;99.90
22065;DHT22;11197;53.110;8.468;2023-04-24T09:19:15;12.00;99.90
22065;DHT22;11197;53.110;8.468;2023-04-24T09:21:45;12.00;99.90
22065;DHT22;11197;53.110;8.468;2023-04-24T09:24:18;12.00;99.90
22065;DHT22;11197;53.110;8.468;2023-04-24T09:26:46;11.90;99.90
22065;DHT22;11197;53.110;8.468;2023-04-24T09:29:16;11.90;99.90
22065;DHT22;11197;53.110;8.468;2023-04-24T09:31:44;11.90;99.90
22065;DHT22;11197;53.110;8.468;2023-04-24T09:34:11;11.90;99.90
22065;DHT22;11197;53.110;8.468;2023-04-24T09:36:42;11.90;99.90
22065;DHT22;11197;53.110;8.468;2023-04-24T09:39:09;11.80;99.90
22065;DHT22;11197;53.110;8.468;2023-04-24T09:41:53;11.80;99.90
22065;DHT22;11197;53.110;8.468;2023-04-24T09:44:21;11.90;99.90
22065;DHT22;11197;53.110;8.468;2023-04-24T09:46:57;11.90;99.90
22065;DHT22;11197;53.110;8.468;2023-04-24T09:51:50;12.00;99.90
22065;DHT22;11197;53.110;8.468;2023-04-24T09:54:21;12.10;99.90
22065;DHT22;11197;53.110;8.468;2023-04-24T09:56:48;12.10;99.90
22065;DHT22;11197;53.110;8.468;2023-04-24T09:59:15;12.20;99.90
22065;DHT22;11197;53.110;8.468;2023-04-24T10:01:42;12.20;99.90
22065;DHT22;11197;53.110;8.468;2023-04-24T10:04:26;12.20;99.90
22065;DHT22;11197;53.110;8.468;2023-04-24T10:06:55;12.30;99.90
22065;DHT22;11197;53.110;8.468;2023-04-24T10:09:25;12.30;99.90
22065;DHT22;11197;53.110;8.468;2023-04-24T10:11:53;12.30;99.90
22065;DHT22;11197;53.110;8.468;2023-04-24T10:14:24;12.30;99.90
22065;DHT22;11197;53.110;8.468;2023-04-24T10:16:54;12.30;99.90
22065;DHT22;11197;53.110;8.468;2023-04-24T10:19:20;12.40;99.90
22065;DHT22;11197;53.110;8.468;2023-04-24T10:21:46;12.40;99.90
22065;DHT22;11197;53.110;8.468;2023-04-24T10:24:14;12.30;99.90
22065;DHT22;11197;53.110;8.468;2023-04-24T10:26:41;12.20;99.90
22065;DHT22;11197;53.110;8.468;2023-04-24T10:29:07;12.20;99.90
22065;DHT22;11197;53.110;8.468;2023-04-24T10:31:36;12.10;99.90
22065;DHT22;11197;53.110;8.468;2023-04-24T10:34:06;12.10;99.90
22065;DHT22;11197;53.110;8.468;2023-04-24T10:36:40;12.10;99.90
22065;DHT22;11197;53.110;8.468;2023-04-24T10:39:12;12.10;99.90
22065;DHT22;11197;53.110;8.468;2023-04-24T10:41:38;12.10;99.90
22065;DHT22;11197;53.110;8.468;2023-04-24T10:44:10;12.10;99.90
22065;DHT22;11197;53.110;8.468;2023-04-24T10:46:37;12.10;99.90
22065;DHT22;11197;53.110;8.468;2023-04-24T10:49:05;12.00;99.90
22065;DHT22;11197;53.110;8.468;2023-04-24T10:54:35;12.10;99.90
22065;DHT22;11197;53.110;8.468;2023-04-24T10:57:34;12.10;99.90
22065;DHT22;11197;53.110;8.468;2023-04-24T11:00:19;12.00;99.90
22065;DHT22;11197;53.110;8.468;2023-04-24T11:02:46;12.00;99.90
22065;DHT22;11197;53.110;8.468;2023-04-24T11:05:19;12.00;99.90
22065;DHT22;11197;53.110;8.468;2023-04-24T11:08:21;12.00;99.90
22065;DHT22;11197;53.110;8.468;2023-04-24T11:14:23;11.90;99.90
22065;DHT22;11197;53.110;8.468;2023-04-24T11:16:34;11.80;99.90
22065;DHT22;11197;53.110;8.468;2023-04-24T11:21:54;11.80;99.90
22065;DHT22;11197;53.110;8.468;2023-04-24T11:27:18;11.80;99.90
22065;DHT22;11197;53.110;8.468;2023-04-24T11:29:48;11.80;99.90
22065;DHT22;11197;53.110;8.468;2023-04-24T11:34:55;11.80;99.90
22065;DHT22;11197;53.110;8.468;2023-04-24T11:37:26;11.80;99.90
22065;DHT22;11197;53.110;8.468;2023-04-24T11:39:57;11.80;99.90
22065;DHT22;11197;53.110;8.468;2023-04-24T11:42:24;11.70;99.90
22065;DHT22;11197;53.110;8.468;2023-04-24T11:44:54;11.70;99.90
22065;DHT22;11197;53.110;8.468;2023-04-24T11:47:29;11.70;99.90
22065;DHT22;11197;53.110;8.468;2023-04-24T11:49:56;11.70;99.90
22065;DHT22;11197;53.110;8.468;2023-04-24T11:52:22;11.70;99.90
22065;DHT22;11197;53.110;8.468;2023-04-24T11:54:49;11.60;99.90
22065;DHT22;11197;53.110;8.468;2023-04-24T11:57:15;11.60;99.90
22065;DHT22;11197;53.110;8.468;2023-04-24T11:59:41;11.60;99.90
22065;DHT22;11197;53.110;8.468;2023-04-24T12:02:07;11.70;99.90
22065;DHT22;11197;53.110;8.468;2023-04-24T12:04:42;11.60;99.90
22065;DHT22;11197;53.110;8.468;2023-04-24T12:07:08;11.60;99.90
22065;DHT22;11197;53.110;8.468;2023-04-24T12:09:45;11.60;99.90
22065;DHT22;11197;53.110;8.468;2023-04-24T12:12:16;11.50;99.90
22065;DHT22;11197;53.110;8.468;2023-04-24T12:14:58;11.50;99.90
22065;DHT22;11197;53.110;8.468;2023-04-24T12:17:26;11.50;99.90
22065;DHT22;11197;53.110;8.468;2023-04-24T12:20:06;11.50;99.90
22065;DHT22;11197;53.110;8.468;2023-04-24T12:22:56;11.50;99.90
22065;DHT22;11197;53.110;8.468;2023-04-24T12:25:24;11.50;99.90
22065;DHT22;11197;53.110;8.468;2023-04-24T12:28:10;11.40;99.90
22065;DHT22;11197;53.110;8.468;2023-04-24T12:30:45;11.40;99.90
22065;DHT22;11197;53.110;8.468;2023-04-24T12:33:18;11.40;99.90
22065;DHT22;11197;53.110;8.468;2023-04-24T12:35:44;11.40;99.90
22065;DHT22;11197;53.110;8.468;2023-04-24T12:38:12;11.40;99.90
22065;DHT22;11197;53.110;8.468;2023-04-24T12:40:39;11.30;99.90
22065;DHT22;11197;53.110;8.468;2023-04-24T12:43:19;11.20;99.90
22065;DHT22;11197;53.110;8.468;2023-04-24T12:45:47;11.10;99.90
22065;DHT22;11197;53.110;8.468;2023-04-24T12:48:13;11.10;99.90
22065;DHT22;11197;53.110;8.468;2023-04-24T12:50:42;11.00;99.90
22065;DHT22;11197;53.110;8.468;2023-04-24T12:53:08;11.00;99.90
22065;DHT22;11197;53.110;8.468;2023-04-24T12:55:35;10.90;99.90
22065;DHT22;11197;53.110;8.468;2023-04-24T12:58:01;10.80;99.90
22065;DHT22;11197;53.110;8.468;2023-04-24T13:00:28;10.80;99.90
22065;DHT22;11197;53.110;8.468;2023-04-24T13:02:54;10.80;99.90
22065;DHT22;11197;53.110;8.468;2023-04-24T13:05:20;10.80;99.90
22065;DHT22;11197;53.110;8.468;2023-04-24T13:07:46;10.80;99.90
22065;DHT22;11197;53.110;8.468;2023-04-24T13:10:12;10.70;99.90
22065;DHT22;11197;53.110;8.468;2023-04-24T13:12:39;10.70;99.90
22065;DHT22;11197;53.110;8.468;2023-04-24T13:15:06;10.60;99.90
22065;DHT22;11197;53.110;8.468;2023-04-24T13:17:32;10.60;99.90
22065;DHT22;11197;53.110;8.468;2023-04-24T13:19:59;10.60;99.90
22065;DHT22;11197;53.110;8.468;2023-04-24T13:22:25;10.50;99.90
22065;DHT22;11197;53.110;8.468;2023-04-24T13:24:50;10.50;99.90
22065;DHT22;11197;53.110;8.468;2023-04-24T13:27:17;10.50;99.90
22065;DHT22;11197;53.110;8.468;2023-04-24T13:29:43;10.40;99.90
22065;DHT22;11197;53.110;8.468;2023-04-24T13:32:09;10.50;99.90
22065;DHT22;11197;53.110;8.468;2023-04-24T13:34:35;10.50;99.90
22065;DHT22;11197;53.110;8.468;2023-04-24T13:37:02;10.50;99.90
22065;DHT22;11197;53.110;8.468;2023-04-24T13:39:29;10.50;99.90
22065;DHT22;11197;53.110;8.468;2023-04-24T13:41:55;10.40;99.90
22065;DHT22;11197;53.110;8.468;2023-04-24T13:44:22;10.40;99.90
22065;DHT22;11197;53.110;8.468;2023-04-24T13:46:51;10.40;99.90
22065;DHT22;11197;53.110;8.468;2023-04-24T13:49:17;10.40;99.90
22065;DHT22;11197;53.110;8.468;2023-04-24T13:51:44;10.30;99.90
22065;DHT22;11197;53.110;8.468;2023-04-24T13:54:11;10.30;99.90
22065;DHT22;11197;53.110;8.468;2023-04-24T13:56:37;10.30;99.90
22065;DHT22;11197;53.110;8.468;2023-04-24T13:59:04;10.20;99.90
22065;DHT22;11197;53.110;8.468;2023-04-24T14:01:30;10.10;99.90
22065;DHT22;11197;53.110;8.468;2023-04-24T14:03:56;10.10;99.90
22065;DHT22;11197;53.110;8.468;2023-04-24T14:06:22;10.10;99.90
22065;DHT22;11197;53.110;8.468;2023-04-24T14:08:49;10.10;99.90
22065;DHT22;11197;53.110;8.468;2023-04-24T14:11:16;10.10;99.90
22065;DHT22;11197;53.110;8.468;2023-04-24T14:13:42;10.20;99.90
22065;DHT22;11197;53.110;8.468;2023-04-24T14:16:09;10.20;99.90
22065;DHT22;11197;53.110;8.468;2023-04-24T14:18:35;10.20;99.90
22065;DHT22;11197;53.110;8.468;2023-04-24T14:21:02;10.20;99.90
22065;DHT22;11197;53.110;8.468;2023-04-24T14:23:28;10.20;99.90
22065;DHT22;11197;53.110;8.468;2023-04-24T14:25:54;10.20;99.90
22065;DHT22;11197;53.110;8.468;2023-04-24T14:28:20;10.20;99.90
22065;DHT22;11197;53.110;8.468;2023-04-24T14:30:50;10.20;99.90
22065;DHT22;11197;53.110;8.468;2023-04-24T14:33:16;10.20;99.90
22065;DHT22;11197;53.110;8.468;2023-04-24T14:35:42;10.20;99.90
22065;DHT22;11197;53.110;8.468;2023-04-24T14:38:08;10.20;99.90
22065;DHT22;11197;53.110;8.468;2023-04-24T14:40:34;10.20;99.90
22065;DHT22;11197;53.110;8.468;2023-04-24T14:43:00;10.30;99.90
22065;DHT22;11197;53.110;8.468;2023-04-24T14:45:26;10.30;99.90
22065;DHT22;11197;53.110;8.468;2023-04-24T14:47:52;10.30;99.90
22065;DHT22;11197;53.110;8.468;2023-04-24T14:50:19;10.20;99.90
22065;DHT22;11197;53.110;8.468;2023-04-24T14:52:45;10.20;99.90
22065;DHT22;11197;53.110;8.468;2023-04-24T14:55:12;10.20;99.90
22065;DHT22;11197;53.110;8.468;2023-04-24T14:57:38;10.20;99.90
22065;DHT22;11197;53.110;8.468;2023-04-24T15:00:07;10.10;99.90
22065;DHT22;11197;53.110;8.468;2023-04-24T15:02:36;10.10;99.90
22065;DHT22;11197;53.110;8.468;2023-04-24T15:05:06;10.10;99.90
22065;DHT22;11197;53.110;8.468;2023-04-24T15:07:32;10.10;99.90
22065;DHT22;11197;53.110;8.468;2023-04-24T15:09:58;10.10;99.90
22065;DHT22;11197;53.110;8.468;2023-04-24T15:12:24;10.10;99.90
22065;DHT22;11197;53.110;8.468;2023-04-24T15:14:50;10.10;99.90
22065;DHT22;11197;53.110;8.468;2023-04-24T15:17:16;10.10;99.90
22065;DHT22;11197;53.110;8.468;2023-04-24T15:19:42;10.10;99.90
22065;DHT22;11197;53.110;8.468;2023-04-24T15:22:07;10.10;99.90
22065;DHT22;11197;53.110;8.468;2023-04-24T15:24:33;10.10;99.90
22065;DHT22;11197;53.110;8.468;2023-04-24T15:26:59;10.10;99.90
22065;DHT22;11197;53.110;8.468;2023-04-24T15:29:27;10.20;99.90
22065;DHT22;11197;53.110;8.468;2023-04-24T15:31:53;10.20;99.90
22065;DHT22;11197;53.110;8.468;2023-04-24T15:34:19;10.20;99.90
22065;DHT22;11197;53.110;8.468;2023-04-24T15:36:44;10.20;99.90
22065;DHT22;11197;53.110;8.468;2023-04-24T15:39:10;10.20;99.90
22065;DHT22;11197;53.110;8.468;2023-04-24T15:41:36;10.20;99.90
22065;DHT22;11197;53.110;8.468;2023-04-24T15:44:02;10.20;99.90
22065;DHT22;11197;53.110;8.468;2023-04-24T15:46:28;10.20;99.90
22065;DHT22;11197;53.110;8.468;2023-04-24T15:48:54;10.20;99.90
22065;DHT22;11197;53.110;8.468;2023-04-24T15:51:20;10.20;99.90